Current Weather

Nairobi Jkia

Nairobi Jkia, Kenya (HKJK)

Report from: Tuesday, August 16, 2022 3:00 AM EAT
Current time: Tuesday, August 16, 2022 3:57 AM EAT

Nearby weather
Weather history
Weather forecast

Temperature16.0°C (60.8°F)
Dew point13.0°C (55.4°F)
Winds 2 kts (1 m/s, 2.3 mph) Vrb
Winds variableWinds variable
Visibility6.2 mi. (10 km)
Clouds Ceiling: Broken clouds 2,300 ft. (701 m)
Altimeter30.15 in.Hg (1021 mB)
Relative humidity82 %
Density altitude65 ft. (20 m)
Remarks No significant changes expected in the next two hours
Flight conditions Marginal Visual Meteorological Conditions
Raw dataHKJK 160000Z VRB02KT 9999 BKN023 16/13 Q1021 NOSIG
An error has occurred. This application may no longer respond until reloaded. Reload 🗙